Uno Mas — WDB8447 — position and weather

sailwx.info

Track history (hours):
 
Tides and Currents Weather Stations Pressure Air Temp Water Temp Dewpoint Dewpoint Depression Visibility Wind Speed Wind Dir Waves Ship Positions

Uno Mas

Owner: mccarty iii, george d, ingleside, TX. More information available from US FCC via Universal Licensing System and Coast Guard Vessel Documentation Center.

Last reported at 2018-Feb-19 04:49 UTC. Time now 2018-Feb-19 14:17 UTC.
Position N 29°36' W 090°58'.

Length 16 m.

Type: Towing. MMSI: 367087250.

Date/timePositionNaut miles runAvg speedWind from/ knotsBaromVisibWave heightAir tempDewpointWater temp
2018-Feb-19 04:49N 29°36' W 090°58'2 5.7
2018-Feb-19 04:30N 29°35' W 090°57'3 5.9
2018-Feb-19 04:00N 29°33' W 090°54'3 5.7
2018-Feb-19 03:29N 29°32' W 090°51'3 5.9
2018-Feb-19 03:00N 29°32' W 090°48'3 5.1
2018-Feb-19 02:30N 29°33' W 090°45'2 4.4
2018-Feb-19 02:00N 29°34' W 090°43'1 1.3
2018-Feb-19 01:30N 29°34' W 090°43'3 5.1
2018-Feb-19 01:00N 29°31' W 090°42'3 5.8
2018-Feb-19 00:30N 29°28' W 090°43'3 5.7
2018-Feb-18 23:58N 29°25' W 090°43'5 0.2
2018-Feb-18 00:19N 29°21' W 090°44'2 6.2
2018-Feb-17 23:59N 29°23' W 090°44'3 6.9
2018-Feb-17 23:30N 29°26' W 090°43'4 7.2
2018-Feb-17 23:00N 29°30' W 090°43'3 7.1
2018-Feb-17 22:30N 29°33' W 090°42'2 3.9
2018-Feb-17 22:00N 29°34' W 090°44'3 6.4
2018-Feb-17 21:30N 29°32' W 090°47'10 1.4
2018-Feb-17 14:40N 29°35' W 090°58'2 5.4
2018-Feb-17 14:23N 29°34' W 090°57'2 5.6
2018-Feb-17 14:00N 29°33' W 090°55'3 5.5
2018-Feb-17 13:27N 29°32' W 090°51'3 5.6
2018-Feb-17 13:00N 29°32' W 090°48'3 5.1
2018-Feb-17 12:30N 29°33' W 090°45'0 1.0
2018-Feb-17 12:00N 29°33' W 090°45'0 0.8
2018-Feb-17 11:30N 29°34' W 090°45'2 3.6
2018-Feb-17 11:00N 29°34' W 090°43'2 3.8
2018-Feb-17 10:30N 29°36' W 090°43'2 3.8
2018-Feb-17 10:00N 29°36' W 090°40'3 5.2
2018-Feb-17 09:30N 29°35' W 090°38'3 5.1
2018-Feb-17 09:00N 29°34' W 090°35'3 5.3
2018-Feb-17 08:26N 29°34' W 090°31'  
2018-Feb-15 01:28N 29°33' W 090°28'3 6.1
2018-Feb-15 01:00N 29°34' W 090°31'3 6.0
2018-Feb-15 00:30N 29°34' W 090°34'3 5.5
2018-Feb-15 00:00N 29°35' W 090°37'3 5.9
2018-Feb-14 23:30N 29°36' W 090°40'2 4.1
2018-Feb-14 23:00N 29°36' W 090°43'2 4.4
2018-Feb-14 22:30N 29°34' W 090°44'3 5.6
2018-Feb-14 22:00N 29°32' W 090°46'1 2.8
2018-Feb-14 21:30N 29°31' W 090°48'1 2.8
2018-Feb-14 20:59N 29°30' W 090°48'3 2.9
2018-Feb-14 19:51N 29°27' W 090°49'3 2.7
2018-Feb-14 18:56N 29°25' W 090°51'0 0.3
2018-Feb-14 18:30N 29°25' W 090°50'1 0.0
2018-Feb-13 16:10N 29°24' W 090°52'1 3.9
2018-Feb-13 15:56N 29°24' W 090°51'0 0.9
2018-Feb-13 15:30N 29°25' W 090°51'1 2.6
2018-Feb-13 14:58N 29°26' W 090°50'4 3.7
2018-Feb-13 13:50N 29°30' W 090°48'1 3.5
2018-Feb-13 13:30N 29°31' W 090°47'1 2.7
2018-Feb-13 13:00N 29°32' W 090°47'3 5.1
2018-Feb-13 12:30N 29°34' W 090°45'2 3.6
2018-Feb-13 12:00N 29°35' W 090°43'0 0.2
2018-Feb-13 11:30N 29°35' W 090°43'0 0.2
2018-Feb-13 11:00N 29°35' W 090°43'0 0.0
2018-Feb-13 10:30N 29°35' W 090°43'0 0.0
2018-Feb-13 10:00N 29°35' W 090°43'0 0.0
2018-Feb-13 09:30N 29°35' W 090°43'0 0.0
2018-Feb-13 09:00N 29°35' W 090°43'0 0.0
2018-Feb-13 08:30N 29°35' W 090°43'0 0.0
2018-Feb-13 08:00N 29°35' W 090°43'0 0.0
2018-Feb-13 07:30N 29°35' W 090°43'0 0.0
2018-Feb-13 07:00N 29°35' W 090°43'2 4.0
2018-Feb-13 06:30N 29°34' W 090°45'3 5.8
2018-Feb-13 06:00N 29°32' W 090°48'4 6.8
2018-Feb-13 05:29N 29°32' W 090°52'3 6.7
2018-Feb-13 04:58N 29°34' W 090°55'  
Track history (hours):
 
Tides and Currents Weather Stations Pressure Air Temp Water Temp Dewpoint Dewpoint Depression Visibility Wind Speed Wind Dir Waves Ship Positions

Uno Mas

Owner: mccarty iii, george d, ingleside, TX. More information available from US FCC via Universal Licensing System and Coast Guard Vessel Documentation Center.

Last reported at 2018-Feb-19 04:49 UTC. Time now 2018-Feb-19 14:18 UTC.
Position N 29°36' W 090°58'.

Length 16 m.

Type: Towing. MMSI: 367087250.

Date/timePositionNaut miles runAvg speedWind from/ knotsBaromVisibWave heightAir tempDewpointWater temp
2018-Feb-19 04:49N 29°36' W 090°58'2 5.7
2018-Feb-19 04:30N 29°35' W 090°57'3 5.9
2018-Feb-19 04:00N 29°33' W 090°54'3 5.7
2018-Feb-19 03:29N 29°32' W 090°51'3 5.9
2018-Feb-19 03:00N 29°32' W 090°48'3 5.1
2018-Feb-19 02:30N 29°33' W 090°45'2 4.4
2018-Feb-19 02:00N 29°34' W 090°43'1 1.3
2018-Feb-19 01:30N 29°34' W 090°43'3 5.1
2018-Feb-19 01:00N 29°31' W 090°42'3 5.8
2018-Feb-19 00:30N 29°28' W 090°43'3 5.7
2018-Feb-18 23:58N 29°25' W 090°43'5 0.2
2018-Feb-18 00:19N 29°21' W 090°44'2 6.2
2018-Feb-17 23:59N 29°23' W 090°44'3 6.9
2018-Feb-17 23:30N 29°26' W 090°43'4 7.2
2018-Feb-17 23:00N 29°30' W 090°43'3 7.1
2018-Feb-17 22:30N 29°33' W 090°42'2 3.9
2018-Feb-17 22:00N 29°34' W 090°44'3 6.4
2018-Feb-17 21:30N 29°32' W 090°47'10 1.4
2018-Feb-17 14:40N 29°35' W 090°58'2 5.4
2018-Feb-17 14:23N 29°34' W 090°57'2 5.6
2018-Feb-17 14:00N 29°33' W 090°55'3 5.5
2018-Feb-17 13:27N 29°32' W 090°51'3 5.6
2018-Feb-17 13:00N 29°32' W 090°48'3 5.1
2018-Feb-17 12:30N 29°33' W 090°45'0 1.0
2018-Feb-17 12:00N 29°33' W 090°45'0 0.8
2018-Feb-17 11:30N 29°34' W 090°45'2 3.6
2018-Feb-17 11:00N 29°34' W 090°43'2 3.8
2018-Feb-17 10:30N 29°36' W 090°43'2 3.8
2018-Feb-17 10:00N 29°36' W 090°40'3 5.2
2018-Feb-17 09:30N 29°35' W 090°38'3 5.1
2018-Feb-17 09:00N 29°34' W 090°35'3 5.3
2018-Feb-17 08:26N 29°34' W 090°31'  
2018-Feb-15 01:28N 29°33' W 090°28'3 6.1
2018-Feb-15 01:00N 29°34' W 090°31'3 6.0
2018-Feb-15 00:30N 29°34' W 090°34'3 5.5
2018-Feb-15 00:00N 29°35' W 090°37'3 5.9
2018-Feb-14 23:30N 29°36' W 090°40'2 4.1
2018-Feb-14 23:00N 29°36' W 090°43'2 4.4
2018-Feb-14 22:30N 29°34' W 090°44'3 5.6
2018-Feb-14 22:00N 29°32' W 090°46'1 2.8
2018-Feb-14 21:30N 29°31' W 090°48'1 2.8
2018-Feb-14 20:59N 29°30' W 090°48'3 2.9
2018-Feb-14 19:51N 29°27' W 090°49'3 2.7
2018-Feb-14 18:56N 29°25' W 090°51'0 0.3
2018-Feb-14 18:30N 29°25' W 090°50'1 0.0
2018-Feb-13 16:10N 29°24' W 090°52'1 3.9
2018-Feb-13 15:56N 29°24' W 090°51'0 0.9
2018-Feb-13 15:30N 29°25' W 090°51'1 2.6
2018-Feb-13 14:58N 29°26' W 090°50'4 3.7
2018-Feb-13 13:50N 29°30' W 090°48'1 3.5
2018-Feb-13 13:30N 29°31' W 090°47'1 2.7
2018-Feb-13 13:00N 29°32' W 090°47'3 5.1
2018-Feb-13 12:30N 29°34' W 090°45'2 3.6
2018-Feb-13 12:00N 29°35' W 090°43'0 0.2
2018-Feb-13 11:30N 29°35' W 090°43'0 0.2
2018-Feb-13 11:00N 29°35' W 090°43'0 0.0
2018-Feb-13 10:30N 29°35' W 090°43'0 0.0
2018-Feb-13 10:00N 29°35' W 090°43'0 0.0
2018-Feb-13 09:30N 29°35' W 090°43'0 0.0
2018-Feb-13 09:00N 29°35' W 090°43'0 0.0
2018-Feb-13 08:30N 29°35' W 090°43'0 0.0
2018-Feb-13 08:00N 29°35' W 090°43'0 0.0
2018-Feb-13 07:30N 29°35' W 090°43'0 0.0
2018-Feb-13 07:00N 29°35' W 090°43'2 4.0
2018-Feb-13 06:30N 29°34' W 090°45'3 5.8
2018-Feb-13 06:00N 29°32' W 090°48'4 6.8
2018-Feb-13 05:29N 29°32' W 090°52'3 6.7
2018-Feb-13 04:58N 29°34' W 090°55'  

Dump ship's entire track history